Time;durP1;ratioP1;P1;durP2;ratioP2;P2;SDS_P1;SDS_P2;PMS_P1;PMS_P2;Temp;Humidity;BMP_temperature;BMP_pressure;BME280_temperature;BME280_humidity;BME280_pressure;Samples;Min_cycle;Max_cycle;Signal;HPM_P1;HPM_P2
2023/11/16 00:00:21;;;;;;;9.60;2.25;;;;;;;20.23;72.00;101565.09;5047298;28;20115;-32
2023/11/16 00:02:47;;;;;;;9.85;2.33;;;;;;;20.19;72.19;101562.06;5048486;28;20469;-32
2023/11/16 00:05:15;;;;;;;6.57;2.40;;;;;;;20.19;72.10;101564.84;5042724;28;20504;-34
2023/11/16 00:07:41;;;;;;;5.22;1.92;;;;;;;20.16;72.42;101576.41;5042393;28;20532;-33
2023/11/16 00:10:09;;;;;;;6.35;2.10;;;;;;;20.15;72.56;101573.94;5053745;28;20366;-34
2023/11/16 00:12:35;;;;;;;8.88;2.50;;;;;;;20.13;72.60;101570.63;5056436;28;20028;-31
2023/11/16 00:15:01;;;;;;;9.02;2.65;;;;;;;20.11;72.85;101573.66;5051865;28;20110;-32
2023/11/16 00:17:28;;;;;;;8.95;2.30;;;;;;;20.10;72.74;101568.41;5058171;28;20120;-32
2023/11/16 00:19:56;;;;;;;6.50;2.38;;;;;;;20.07;72.87;101557.97;5048534;28;20029;-32
2023/11/16 00:22:22;;;;;;;5.13;2.10;;;;;;;20.05;72.93;101558.25;5050716;28;20029;-32
2023/11/16 00:24:47;;;;;;;7.50;2.30;;;;;;;20.04;73.20;101562.91;5049856;28;20274;-34
2023/11/16 00:27:13;;;;;;;6.90;2.58;;;;;;;20.02;73.10;101567.03;5042495;28;20024;-33
2023/11/16 00:29:38;;;;;;;6.68;2.20;;;;;;;20.01;73.22;101565.38;5030267;28;20086;-35
2023/11/16 00:32:04;;;;;;;8.13;2.40;;;;;;;19.99;73.28;101567.59;5033890;28;20048;-34
2023/11/16 00:34:30;;;;;;;6.13;1.88;;;;;;;19.98;73.56;101564.00;5047776;28;20700;-34
2023/11/16 00:36:55;;;;;;;6.75;2.30;;;;;;;19.97;73.68;101572.53;5037459;28;20052;-34
2023/11/16 00:39:20;;;;;;;7.65;2.30;;;;;;;19.95;73.68;101581.06;5045388;28;20032;-34
2023/11/16 00:41:46;;;;;;;5.82;2.10;;;;;;;19.94;73.85;101579.41;5050973;28;20032;-33
2023/11/16 00:44:14;;;;;;;9.25;2.45;;;;;;;19.92;74.06;101581.59;5029589;28;20079;-34
2023/11/16 00:46:43;;;;;;;7.60;2.03;;;;;;;19.91;74.42;101585.44;5067945;28;20548;-33
2023/11/16 00:49:09;;;;;;;6.07;2.28;;;;;;;19.91;74.58;101579.94;5041578;28;20029;-32
2023/11/16 00:51:34;;;;;;;7.40;2.30;;;;;;;19.90;74.27;101589.28;5033867;28;20059;-32
2023/11/16 00:54:00;;;;;;;6.13;2.35;;;;;;;19.90;74.27;101588.47;5048046;28;20024;-34
2023/11/16 00:56:25;;;;;;;6.30;2.10;;;;;;;19.90;74.59;101585.72;5058533;28;20512;-34
2023/11/16 00:58:51;;;;;;;6.15;2.30;;;;;;;19.88;74.73;101584.06;5033944;28;20168;-33
2023/11/16 01:01:16;;;;;;;5.47;2.20;;;;;;;19.88;74.65;101583.25;5036459;28;20120;-32
2023/11/16 01:03:42;;;;;;;4.80;1.92;;;;;;;19.87;74.30;101585.16;5031334;28;20036;-32
2023/11/16 01:06:08;;;;;;;6.20;2.13;;;;;;;19.87;74.58;101584.34;5046423;28;20052;-32
2023/11/16 01:08:36;;;;;;;7.70;2.30;;;;;;;19.86;74.57;101589.03;5035094;28;20064;-33
2023/11/16 01:11:07;;;;;;;8.55;2.88;;;;;;;19.84;74.77;101582.97;5036264;28;20029;-34
2023/11/16 01:13:38;;;;;;;5.05;2.08;;;;;;;19.85;75.04;101583.78;5047878;28;20036;-32
2023/11/16 01:16:09;;;;;;;5.85;2.20;;;;;;;19.83;74.72;101583.22;5057829;28;20517;-32
2023/11/16 01:18:37;;;;;;;8.07;2.22;;;;;;;19.83;74.95;101588.72;5045525;28;20358;-33
2023/11/16 01:21:08;;;;;;;6.00;2.05;;;;;;;19.82;74.62;101589.81;5041107;28;20099;-33
2023/11/16 01:23:35;;;;;;;8.30;2.35;;;;;;;19.80;75.09;101586.47;5054086;28;20059;-32
2023/11/16 01:26:01;;;;;;;6.45;2.20;;;;;;;19.78;74.83;101589.50;5037954;28;20075;-33
2023/11/16 01:28:29;;;;;;;4.25;2.03;;;;;;;19.77;75.05;101582.34;5045552;28;20510;-34
2023/11/16 01:30:56;;;;;;;4.80;1.90;;;;;;;19.77;75.26;101587.03;5040406;28;20041;-33
2023/11/16 01:33:22;;;;;;;7.68;2.25;;;;;;;19.76;75.03;101594.44;5041004;28;20021;-34
2023/11/16 01:35:50;;;;;;;6.05;2.25;;;;;;;19.73;75.10;101584.81;5050346;28;20143;-34
2023/11/16 01:38:16;;;;;;;4.72;1.98;;;;;;;19.74;75.43;101588.38;5045496;28;20032;-33
2023/11/16 01:40:41;;;;;;;3.85;1.70;;;;;;;19.73;75.24;101593.06;5040622;28;20492;-34
2023/11/16 01:43:08;;;;;;;2.67;1.50;;;;;;;19.72;75.24;101590.59;5032707;28;20029;-33
2023/11/16 01:45:34;;;;;;;5.80;1.80;;;;;;;19.70;75.63;101585.34;5039204;28;20110;-34
2023/11/16 01:48:06;;;;;;;3.40;1.70;;;;;;;19.69;75.64;101586.47;5044171;28;20116;-34
2023/11/16 01:50:35;;;;;;;5.57;2.40;;;;;;;19.67;75.50;101583.16;5039289;28;20064;-33
2023/11/16 01:53:06;;;;;;;6.32;1.85;;;;;;;19.68;75.62;101586.72;5045597;28;20025;-35
2023/11/16 01:55:36;;;;;;;4.20;1.52;;;;;;;19.66;75.44;101586.19;5062849;28;20158;-35
2023/11/16 01:58:05;;;;;;;4.72;1.98;;;;;;;19.65;75.72;101596.34;5037134;28;20658;-33
2023/11/16 02:00:34;;;;;;;4.72;1.67;;;;;;;19.64;75.54;101589.19;5058861;28;20033;-33
2023/11/16 02:03:01;;;;;;;3.58;1.40;;;;;;;19.64;75.56;101593.88;5055358;28;20489;-34
2023/11/16 02:05:27;;;;;;;4.10;1.60;;;;;;;19.63;75.59;101601.31;5049190;28;20508;-32
2023/11/16 02:07:52;;;;;;;2.67;1.42;;;;;;;19.61;76.03;101602.63;5040259;28;20099;-34
2023/11/16 02:10:18;;;;;;;4.35;1.65;;;;;;;19.60;76.14;101601.81;5050282;28;20025;-34
2023/11/16 02:12:53;;;;;;;4.05;1.50;;;;;;;19.61;76.12;101602.63;5051355;28;20095;-35
2023/11/16 02:15:18;;;;;;;5.97;1.60;;;;;;;19.59;75.95;101597.41;5034692;28;20666;-34
2023/11/16 02:17:44;;;;;;;5.10;1.40;;;;;;;19.59;75.83;101602.09;5052628;28;20020;-34
2023/11/16 02:20:10;;;;;;;3.78;1.40;;;;;;;19.57;76.23;101599.63;5044003;28;20040;-35
2023/11/16 02:22:36;;;;;;;2.90;1.25;;;;;;;19.56;76.11;101600.72;5035951;28;20041;-34
2023/11/16 02:25:03;;;;;;;4.20;1.40;;;;;;;19.55;76.48;101601.81;5042586;28;20029;-34
2023/11/16 02:27:28;;;;;;;5.38;1.52;;;;;;;19.54;76.47;101589.97;5035943;28;20032;-35
2023/11/16 02:29:54;;;;;;;2.55;1.35;;;;;;;19.52;76.22;101583.94;5048595;28;20052;-35
2023/11/16 02:32:20;;;;;;;3.58;1.38;;;;;;;19.52;76.64;101586.69;5046209;28;20040;-31
2023/11/16 02:34:47;;;;;;;3.25;1.40;;;;;;;19.52;76.63;101585.84;5046365;28;20021;-33
2023/11/16 02:37:13;;;;;;;2.95;1.20;;;;;;;19.51;76.78;101586.94;5044477;28;20036;-33
2023/11/16 02:39:38;;;;;;;3.40;1.33;;;;;;;19.50;76.72;101583.38;5041813;28;20037;-35
2023/11/16 02:42:05;;;;;;;3.92;1.40;;;;;;;19.49;76.65;101580.91;5055144;28;20123;-31
2023/11/16 02:44:31;;;;;;;2.38;1.20;;;;;;;19.48;76.61;101581.97;5049196;28;20056;-31
2023/11/16 02:46:56;;;;;;;3.60;1.65;;;;;;;19.48;76.94;101579.22;5048268;28;20087;-33
2023/11/16 02:49:22;;;;;;;3.40;1.30;;;;;;;19.47;76.92;101583.06;5044679;28;20477;-33
2023/11/16 02:51:47;;;;;;;3.13;1.38;;;;;;;19.47;76.87;101580.31;5060417;28;20012;-35
2023/11/16 02:54:13;;;;;;;2.25;1.30;;;;;;;19.46;77.00;101582.25;5052571;28;20041;-34
2023/11/16 02:56:38;;;;;;;3.25;1.10;;;;;;;19.46;77.00;101584.16;5053739;28;20568;-34
2023/11/16 02:59:04;;;;;;;2.15;1.20;;;;;;;19.45;76.82;101590.75;5041076;28;20107;-34
2023/11/16 03:01:32;;;;;;;2.88;1.20;;;;;;;19.45;77.04;101582.50;5051363;28;20043;-34
2023/11/16 03:03:58;;;;;;;3.50;1.00;;;;;;;19.43;77.15;101581.97;5051741;28;20041;-35
2023/11/16 03:06:23;;;;;;;2.45;1.30;;;;;;;19.42;77.37;101594.88;5051595;28;20483;-34
2023/11/16 03:08:49;;;;;;;1.92;1.10;;;;;;;19.42;77.20;101591.31;5059113;28;20044;-34
2023/11/16 03:11:15;;;;;;;2.72;1.20;;;;;;;19.40;77.59;101589.66;5051899;28;20029;-35
2023/11/16 03:13:41;;;;;;;3.17;1.20;;;;;;;19.39;77.21;101585.25;5043366;28;20061;-34
2023/11/16 03:16:07;;;;;;;2.00;1.25;;;;;;;19.38;77.57;101575.34;5030841;28;20059;-34
2023/11/16 03:18:32;;;;;;;1.92;1.02;;;;;;;19.38;77.64;101577.28;5052734;28;20488;-34
2023/11/16 03:20:58;;;;;;;2.75;1.00;;;;;;;19.37;77.60;101570.97;5039280;28;20446;-35
2023/11/16 03:23:23;;;;;;;2.13;1.20;;;;;;;19.38;77.43;101577.28;5043959;28;20041;-34
2023/11/16 03:25:48;;;;;;;3.38;1.30;;;;;;;19.36;77.69;101572.06;5049753;28;20028;-34
2023/11/16 03:28:14;;;;;;;4.25;1.45;;;;;;;19.36;77.76;101574.81;5040568;28;20029;-35
2023/11/16 03:30:39;;;;;;;3.03;0.90;;;;;;;19.35;78.01;101564.91;5060160;28;20100;-34
2023/11/16 03:33:08;;;;;;;3.22;1.00;;;;;;;19.34;77.67;101549.50;5039925;28;20540;-34
2023/11/16 03:35:33;;;;;;;4.28;1.30;;;;;;;19.34;77.99;101555.00;5053010;28;20055;-33
2023/11/16 03:37:59;;;;;;;2.05;1.20;;;;;;;19.35;77.93;101555.81;5043231;28;20033;-33
2023/11/16 03:40:24;;;;;;;2.97;1.13;;;;;;;19.33;77.73;101550.59;5027972;28;20033;-33
2023/11/16 03:42:50;;;;;;;2.75;1.00;;;;;;;19.32;78.00;101551.69;5044135;28;20063;-33
2023/11/16 03:45:15;;;;;;;2.50;1.10;;;;;;;19.31;77.85;101544.56;5049945;28;20312;-33
2023/11/16 03:47:40;;;;;;;3.53;1.20;;;;;;;19.30;77.92;101542.91;5035975;28;20033;-33
2023/11/16 03:50:06;;;;;;;2.40;1.15;;;;;;;19.29;78.00;101535.75;5037634;28;20029;-33
2023/11/16 03:52:31;;;;;;;1.65;1.00;;;;;;;19.29;78.04;101535.75;5042757;28;20547;-33
2023/11/16 03:54:58;;;;;;;2.58;0.95;;;;;;;19.29;78.01;101540.38;5034016;28;20570;-33
2023/11/16 03:57:24;;;;;;;1.90;1.00;;;;;;;19.27;78.27;101534.34;5042581;28;20024;-32
2023/11/16 03:59:49;;;;;;;2.22;1.25;;;;;;;19.27;78.21;101539.84;5029461;28;20412;-33
2023/11/16 04:02:15;;;;;;;2.35;1.10;;;;;;;19.25;78.41;101542.84;5043274;28;20461;-32
2023/11/16 04:04:42;;;;;;;3.35;0.95;;;;;;;19.24;78.81;101541.22;5038900;28;20041;-33
2023/11/16 04:07:08;;;;;;;1.65;0.95;;;;;;;19.22;78.47;101537.91;5044488;28;20044;-32
2023/11/16 04:09:36;;;;;;;2.35;0.90;;;;;;;19.22;78.39;101540.66;5049939;28;20044;-31
2023/11/16 04:12:02;;;;;;;4.43;1.00;;;;;;;19.22;78.38;101540.66;5048102;28;20366;-31
2023/11/16 04:14:27;;;;;;;2.55;1.23;;;;;;;19.20;78.44;101543.69;5047565;28;20040;-34
2023/11/16 04:16:53;;;;;;;2.45;1.20;;;;;;;19.19;78.77;101543.91;5035997;28;20037;-34
2023/11/16 04:19:20;;;;;;;2.28;0.90;;;;;;;19.19;78.90;101553.00;5038320;28;20025;-34
2023/11/16 04:21:46;;;;;;;2.92;1.23;;;;;;;19.18;78.79;101550.53;5038388;28;20029;-33
2023/11/16 04:24:13;;;;;;;3.90;1.08;;;;;;;19.16;78.72;101545.28;5039162;28;20030;-33
2023/11/16 04:26:38;;;;;;;2.72;0.93;;;;;;;19.15;78.93;101532.63;5036285;28;20033;-32
2023/11/16 04:29:05;;;;;;;1.60;1.10;;;;;;;19.15;78.90;101523.59;5047204;28;20409;-34
2023/11/16 04:31:31;;;;;;;4.75;1.25;;;;;;;19.15;78.79;101523.59;5071067;28;20028;-33
2023/11/16 04:33:57;;;;;;;2.58;1.10;;;;;;;19.14;79.12;101527.41;5046473;28;20576;-33
2023/11/16 04:36:23;;;;;;;4.15;1.20;;;;;;;19.13;78.94;101543.09;5053479;28;20034;-35
2023/11/16 04:38:52;;;;;;;3.63;1.02;;;;;;;19.11;78.94;101544.44;5054602;28;20028;-33
2023/11/16 04:41:17;;;;;;;4.35;0.90;;;;;;;19.12;79.19;101546.94;5042835;28;20032;-34
2023/11/16 04:43:44;;;;;;;1.40;0.80;;;;;;;19.13;78.95;101536.75;5035110;28;20456;-33
2023/11/16 04:46:15;;;;;;;4.32;1.20;;;;;;;19.10;79.33;101538.13;5062666;28;20036;-33
2023/11/16 04:48:42;;;;;;;1.77;1.10;;;;;;;19.11;79.22;101528.78;5042092;28;20401;-34
2023/11/16 04:51:09;;;;;;;3.13;1.13;;;;;;;19.11;79.32;101514.22;5056679;28;20028;-33
2023/11/16 04:53:35;;;;;;;4.18;1.05;;;;;;;19.09;79.07;101503.50;5047385;28;20028;-35
2023/11/16 04:56:01;;;;;;;1.95;1.00;;;;;;;19.07;79.18;101509.25;5038997;28;20016;-34
2023/11/16 04:58:27;;;;;;;1.80;1.10;;;;;;;19.08;79.31;101518.34;5055384;28;20452;-33
2023/11/16 05:00:53;;;;;;;2.17;0.82;;;;;;;19.07;79.30;101512.00;5057078;28;20467;-32
2023/11/16 05:03:19;;;;;;;2.42;1.10;;;;;;;19.06;79.48;101510.34;5047511;28;20039;-31
2023/11/16 05:05:45;;;;;;;1.77;0.85;;;;;;;19.07;79.39;101516.69;5064174;28;20035;-32
2023/11/16 05:08:11;;;;;;;1.85;1.00;;;;;;;19.06;79.69;101520.53;5055464;28;20397;-34
2023/11/16 05:10:36;;;;;;;1.88;0.90;;;;;;;19.05;79.65;101521.63;5056872;28;20524;-33
2023/11/16 05:13:03;;;;;;;1.10;0.82;;;;;;;19.05;79.64;101524.34;5044060;28;20044;-33
2023/11/16 05:15:28;;;;;;;3.05;1.00;;;;;;;19.04;79.52;101528.19;5031983;28;20029;-34
2023/11/16 05:17:54;;;;;;;2.58;1.10;;;;;;;19.03;79.79;101526.53;5050476;28;20032;-34
2023/11/16 05:20:19;;;;;;;2.38;1.08;;;;;;;19.03;79.96;101529.28;5051163;28;20125;-33
2023/11/16 05:22:45;;;;;;;1.83;0.95;;;;;;;19.02;79.91;101522.97;5046859;28;20025;-33
2023/11/16 05:25:10;;;;;;;3.08;1.02;;;;;;;19.02;79.67;101513.91;5052522;28;20033;-34
2023/11/16 05:27:37;;;;;;;2.20;0.98;;;;;;;19.02;79.83;101505.69;5047118;28;20033;-33
2023/11/16 05:30:04;;;;;;;2.42;1.05;;;;;;;19.00;79.68;101505.94;5064117;28;20028;-34
2023/11/16 05:32:29;;;;;;;2.42;0.90;;;;;;;18.99;79.91;101507.00;5043829;28;20025;-34
2023/11/16 05:34:55;;;;;;;2.80;0.98;;;;;;;18.99;80.07;101503.44;5049215;28;20040;-34
2023/11/16 05:37:20;;;;;;;1.85;0.95;;;;;;;18.99;80.31;101522.69;5049631;28;20033;-34
2023/11/16 05:39:46;;;;;;;2.28;1.17;;;;;;;18.97;80.06;101522.97;5045596;28;20402;-34
2023/11/16 05:42:11;;;;;;;3.42;1.00;;;;;;;18.98;79.98;101523.78;5048153;28;20155;-33
2023/11/16 05:44:37;;;;;;;3.17;1.00;;;;;;;18.97;80.01;101514.72;5063010;28;20528;-34
2023/11/16 05:47:03;;;;;;;1.77;1.00;;;;;;;18.96;80.20;101510.31;5053893;28;20035;-32
2023/11/16 05:49:28;;;;;;;2.03;0.90;;;;;;;18.96;80.06;101503.97;5042765;28;20119;-33
2023/11/16 05:51:54;;;;;;;3.25;1.45;;;;;;;18.95;80.10;101510.59;5056622;28;20025;-31
2023/11/16 05:54:20;;;;;;;1.30;0.77;;;;;;;18.93;nan;101505.34;5055108;28;20086;-34
2023/11/16 05:56:45;;;;;;;2.45;0.85;;;;;;;18.94;80.48;101492.44;5041541;28;20495;-34
2023/11/16 05:59:11;;;;;;;2.83;1.20;;;;;;;18.93;80.33;101491.59;5048937;28;20041;-32
2023/11/16 06:01:39;;;;;;;1.83;0.88;;;;;;;18.97;80.39;101480.91;5038188;28;20035;-32
2023/11/16 06:04:06;;;;;;;2.97;0.95;;;;;;;19.01;80.24;101474.63;5044953;28;20511;-35
2023/11/16 06:06:32;;;;;;;1.15;0.80;;;;;;;19.08;80.00;101474.38;5052949;28;20050;-35
2023/11/16 06:08:57;;;;;;;1.33;0.95;;;;;;;19.15;79.80;101482.38;5062114;28;20025;-35
2023/11/16 06:11:23;;;;;;;2.47;1.15;;;;;;;19.22;79.92;101477.44;5043023;28;20104;-34
2023/11/16 06:13:50;;;;;;;2.67;1.23;;;;;;;19.31;79.30;101469.50;5049736;28;20111;-35
2023/11/16 06:16:15;;;;;;;1.13;0.75;;;;;;;19.40;79.38;101467.88;5038003;28;20028;-34
2023/11/16 06:18:41;;;;;;;1.30;0.88;;;;;;;19.51;78.95;101465.97;5034359;28;20033;-34
2023/11/16 06:21:07;;;;;;;3.47;1.02;;;;;;;19.62;78.62;101461.31;5050960;28;20026;-34
2023/11/16 06:23:33;;;;;;;1.33;0.80;;;;;;;19.74;78.73;101459.13;5040135;28;20033;-35
2023/11/16 06:25:59;;;;;;;2.13;0.95;;;;;;;19.84;78.12;101452.84;5046521;28;20474;-34
2023/11/16 06:28:24;;;;;;;1.65;0.80;;;;;;;19.95;78.11;101450.91;5045203;28;20020;-34
2023/11/16 06:30:50;;;;;;;2.10;1.00;;;;;;;20.06;77.96;101452.59;5040809;28;20469;-36
2023/11/16 06:33:16;;;;;;;2.70;1.05;;;;;;;20.16;77.35;101451.75;5040583;28;20025;-34
2023/11/16 06:35:41;;;;;;;2.45;0.93;;;;;;;20.26;77.34;101448.16;5044494;28;20017;-35
2023/11/16 06:38:09;;;;;;;1.20;0.90;;;;;;;20.33;76.96;101452.28;5041416;28;20017;-34
2023/11/16 06:40:35;;;;;;;2.17;1.02;;;;;;;20.43;76.82;101447.81;5040164;28;20017;-33
2023/11/16 06:43:03;;;;;;;1.15;0.85;;;;;;;20.50;76.65;101442.84;5041381;28;20029;-34
2023/11/16 06:45:29;;;;;;;1.45;0.80;;;;;;;20.59;76.67;101434.84;5032498;28;20036;-33
2023/11/16 06:47:55;;;;;;;1.35;0.90;;;;;;;20.68;76.11;101439.50;5043355;28;20026;-34
2023/11/16 06:50:20;;;;;;;2.30;0.95;;;;;;;20.74;76.32;101443.09;5044027;28;20059;-35
2023/11/16 06:52:47;;;;;;;1.83;1.10;;;;;;;20.78;76.02;101443.34;5038891;28;20020;-34
2023/11/16 06:55:17;;;;;;;1.42;0.90;;;;;;;20.80;76.04;101441.16;5036561;28;20018;-34
2023/11/16 06:57:43;;;;;;;3.00;0.82;;;;;;;20.80;75.88;101439.22;5051117;28;20056;-34
2023/11/16 07:00:15;;;;;;;0.80;0.80;;;;;;;20.80;76.21;101446.66;5049993;28;20021;-34
2023/11/16 07:02:44;;;;;;;1.85;0.85;;;;;;;20.78;75.85;101440.59;5045026;28;20485;-35
2023/11/16 07:05:10;;;;;;;3.30;1.00;;;;;;;20.75;75.89;101439.25;5045953;28;20558;-33
2023/11/16 07:07:39;;;;;;;1.83;1.08;;;;;;;20.72;75.95;101437.03;5045914;28;20079;-33
2023/11/16 07:10:07;;;;;;;3.47;0.90;;;;;;;20.70;76.17;101430.97;5042949;28;20412;-33
2023/11/16 07:12:32;;;;;;;2.42;1.00;;;;;;;20.70;76.28;101433.72;5042020;28;20383;-33
2023/11/16 07:14:57;;;;;;;6.28;1.13;;;;;;;20.67;76.04;101426.84;5043889;28;20040;-34
2023/11/16 07:17:24;;;;;;;3.92;1.00;;;;;;;20.67;76.00;101426.84;5046425;28;20358;-33
2023/11/16 07:19:49;;;;;;;1.45;1.00;;;;;;;20.65;76.25;101420.78;5048763;28;20426;-35
2023/11/16 07:22:15;;;;;;;1.77;1.10;;;;;;;20.63;76.16;101423.00;5033444;28;20071;-32
2023/11/16 07:24:43;;;;;;;3.28;1.05;;;;;;;20.61;76.20;101424.38;5047322;28;20037;-32
2023/11/16 07:27:09;;;;;;;2.08;1.00;;;;;;;20.59;76.27;101413.66;5045493;28;20031;-31
2023/11/16 07:29:36;;;;;;;2.78;1.38;;;;;;;20.56;75.96;101418.91;5044851;28;20388;-31
2023/11/16 07:32:04;;;;;;;3.90;1.10;;;;;;;20.53;76.04;101412.03;5037747;28;20115;-30
2023/11/16 07:34:29;;;;;;;2.30;0.95;;;;;;;20.50;76.26;101407.91;5039004;28;20079;-34
2023/11/16 07:36:55;;;;;;;1.40;0.88;;;;;;;20.46;76.33;101408.75;5037905;28;20114;-34
2023/11/16 07:39:20;;;;;;;2.00;1.00;;;;;;;20.40;76.38;101409.84;5038950;28;20516;-33
2023/11/16 07:41:46;;;;;;;2.67;1.20;;;;;;;20.37;76.51;101414.00;5033621;28;20108;-34
2023/11/16 07:44:12;;;;;;;2.25;1.05;;;;;;;20.33;76.82;101412.88;5031321;28;20038;-35
2023/11/16 07:46:38;;;;;;;1.75;1.02;;;;;;;20.29;76.78;101417.31;5039665;28;20494;-34
2023/11/16 07:49:04;;;;;;;2.35;1.10;;;;;;;20.25;76.75;101418.97;5031394;28;20033;-33
2023/11/16 07:51:29;;;;;;;1.35;1.10;;;;;;;20.20;76.82;101422.56;5040630;28;20034;-34
2023/11/16 07:53:57;;;;;;;4.40;1.30;;;;;;;20.16;76.81;101414.03;5040812;28;20040;-35
2023/11/16 07:56:22;;;;;;;3.25;1.23;;;;;;;20.12;77.03;101406.59;5041490;28;20025;-35
2023/11/16 07:58:51;;;;;;;1.35;1.10;;;;;;;20.09;77.33;101401.69;5036460;28;20117;-34
2023/11/16 08:01:21;;;;;;;3.15;1.23;;;;;;;20.06;77.50;101399.47;5051393;28;20051;-34
2023/11/16 08:03:55;;;;;;;1.45;1.10;;;;;;;20.04;77.29;101391.50;5037110;28;20426;-34
2023/11/16 08:06:22;;;;;;;4.22;1.10;;;;;;;20.00;77.27;101388.47;5033303;28;20104;-34
2023/11/16 08:08:49;;;;;;;2.75;1.40;;;;;;;19.96;77.80;101381.03;5047462;28;20032;-35
2023/11/16 08:11:15;;;;;;;2.58;1.58;;;;;;;19.94;77.46;101380.47;5040021;28;20021;-33
2023/11/16 08:13:42;;;;;;;4.18;1.30;;;;;;;19.92;77.88;101374.47;5042382;28;20418;-34
2023/11/16 08:16:12;;;;;;;3.08;1.30;;;;;;;19.90;78.02;101365.66;5030906;28;20032;-34
2023/11/16 08:18:38;;;;;;;3.70;1.45;;;;;;;19.88;77.87;101363.19;5041322;28;20041;-34
2023/11/16 08:21:06;;;;;;;3.88;1.40;;;;;;;19.85;78.09;101360.97;5041044;28;20086;-34
2023/11/16 08:23:39;;;;;;;2.97;1.45;;;;;;;19.83;78.16;101364.00;5042532;28;20481;-34
2023/11/16 08:26:10;;;;;;;4.30;1.40;;;;;;;19.83;77.97;101365.91;5036736;28;20525;-30
2023/11/16 08:28:36;;;;;;;2.33;1.40;;;;;;;19.81;77.98;101357.91;5050547;28;20036;-32
2023/11/16 08:31:01;;;;;;;5.00;1.58;;;;;;;19.80;78.04;101358.19;5050684;28;20460;-31
2023/11/16 08:33:27;;;;;;;2.08;1.33;;;;;;;19.78;77.94;101354.88;5045022;28;20096;-31
2023/11/16 08:35:53;;;;;;;4.60;1.70;;;;;;;19.77;78.49;101365.06;5049226;28;20402;-33
2023/11/16 08:38:19;;;;;;;7.63;1.85;;;;;;;19.77;78.57;101362.34;5042308;28;20028;-34
2023/11/16 08:40:45;;;;;;;8.05;2.15;;;;;;;19.78;78.77;101365.88;5038439;28;20036;-34
2023/11/16 08:43:11;;;;;;;7.35;2.15;;;;;;;19.78;79.24;101365.88;5042137;28;20033;-34
2023/11/16 08:45:37;;;;;;;12.10;2.92;;;;;;;19.78;79.65;101368.66;5044044;28;20517;-33
2023/11/16 08:48:03;;;;;;;7.53;2.50;;;;;;;19.77;79.80;101365.06;5044043;28;20032;-35
2023/11/16 08:50:29;;;;;;;13.13;2.97;;;;;;;19.78;80.05;101360.38;5031820;28;20450;-34
2023/11/16 08:52:57;;;;;;;15.85;2.83;;;;;;;19.76;80.00;101359.88;5035514;28;20033;-33
2023/11/16 08:55:22;;;;;;;8.93;2.85;;;;;;;19.76;80.26;101357.94;5042622;28;20059;-34
2023/11/16 08:57:51;;;;;;;12.77;3.28;;;;;;;19.74;80.77;101360.13;5042391;28;20045;-34
2023/11/16 09:00:37;;;;;;;14.15;3.78;;;;;;;19.72;80.74;101356.84;5035139;28;20033;-33
2023/11/16 09:03:04;;;;;;;34.50;4.90;;;;;;;19.73;80.81;101358.50;5042277;28;20058;-34
2023/11/16 09:05:32;;;;;;;20.25;4.68;;;;;;;19.73;82.09;101356.56;5041964;28;20146;-33
2023/11/16 09:07:59;;;;;;;15.82;3.38;;;;;;;19.79;83.28;101364.78;5045265;28;20032;-34
2023/11/16 09:10:25;;;;;;;17.35;3.35;;;;;;;19.84;83.79;101367.56;5055187;28;20365;-33
2023/11/16 09:12:55;;;;;;;15.88;3.30;;;;;;;19.88;84.00;101364.00;5051182;28;20108;-35
2023/11/16 09:15:22;;;;;;;18.13;3.38;;;;;;;19.94;84.47;101361.22;5039942;28;20455;-34
2023/11/16 09:17:51;;;;;;;16.17;3.17;;;;;;;19.99;84.33;101369.50;5041399;28;20565;-34
2023/11/16 09:20:18;;;;;;;14.17;3.23;;;;;;;20.04;84.16;101364.78;5042369;28;20037;-34
2023/11/16 09:22:50;;;;;;;19.83;3.58;;;;;;;20.08;83.78;101358.75;5035353;28;20229;-33
2023/11/16 09:25:19;;;;;;;14.93;4.75;;;;;;;20.11;83.57;101370.03;5030363;28;20037;-33
2023/11/16 09:27:52;;;;;;;24.67;6.00;;;;;;;20.12;83.49;101368.09;5030902;28;20294;-35
2023/11/16 09:30:18;;;;;;;35.13;7.63;;;;;;;20.15;83.00;101370.28;5050754;28;20063;-33
2023/11/16 09:32:44;;;;;;;31.70;7.90;;;;;;;20.17;82.99;101373.56;5052096;28;20493;-32
2023/11/16 09:35:14;;;;;;;31.13;7.78;;;;;;;20.17;82.52;101360.66;5051506;28;20046;-32
2023/11/16 09:37:40;;;;;;;53.60;7.97;;;;;;;20.18;82.37;101359.56;5031699;28;20033;-34
2023/11/16 09:40:09;;;;;;;37.40;8.20;;;;;;;20.16;82.12;101353.50;5041039;28;20404;-34
2023/11/16 09:42:35;;;;;;;42.47;8.77;;;;;;;20.12;81.84;101352.41;5040219;28;20037;-34
2023/11/16 09:45:03;;;;;;;35.83;7.57;;;;;;;20.08;81.80;101350.50;5042891;28;20052;-36
2023/11/16 09:47:31;;;;;;;37.35;6.97;;;;;;;20.03;81.57;101354.06;5041997;28;20028;-35
2023/11/16 09:49:56;;;;;;;35.92;7.05;;;;;;;19.98;81.30;101365.09;5041079;28;20024;-35
2023/11/16 09:52:38;;;;;;;27.52;6.65;;;;;;;19.94;81.12;101364.81;5044687;28;20086;-37
2023/11/16 09:55:06;;;;;;;31.48;7.03;;;;;;;19.92;81.23;101355.19;5039377;28;20033;-34
2023/11/16 09:57:34;;;;;;;24.77;5.97;;;;;;;19.92;81.21;101357.94;5048555;28;20025;-35
2023/11/16 10:00:13;;;;;;;29.30;6.82;;;;;;;19.91;80.58;101354.34;5041276;28;20029;-34
2023/11/16 10:02:43;;;;;;;18.92;5.53;;;;;;;19.95;80.37;101357.38;5043669;28;20032;-35
2023/11/16 10:05:34;;;;;;;26.80;6.45;;;;;;;19.99;80.28;101348.31;5045524;28;20563;-35
2023/11/16 10:08:01;;;;;;;16.65;5.43;;;;;;;20.06;80.13;101344.44;5032748;28;20352;-33
2023/11/16 10:10:33;;;;;;;16.88;5.47;;;;;;;20.09;80.15;101341.94;5038163;28;20025;-33
2023/11/16 10:12:58;;;;;;;18.40;5.03;;;;;;;20.12;79.76;101337.81;5038894;28;20036;-35
2023/11/16 10:15:24;;;;;;;15.75;5.00;;;;;;;20.14;79.82;101335.63;5036599;28;20025;-33
2023/11/16 10:17:50;;;;;;;20.83;5.50;;;;;;;20.16;79.77;101330.66;5042260;28;20674;-34
2023/11/16 10:20:16;;;;;;;16.15;4.85;;;;;;;20.16;79.51;101325.16;5040737;28;20021;-34
2023/11/16 10:22:45;;;;;;;16.35;5.40;;;;;;;20.16;79.67;101325.16;5034416;28;20238;-33
2023/11/16 10:25:11;;;;;;;13.93;4.55;;;;;;;20.17;79.02;101326.78;5039814;28;20190;-35
2023/11/16 10:27:37;;;;;;;18.08;4.72;;;;;;;20.17;79.29;101324.03;5041844;28;20582;-35
2023/11/16 10:30:03;;;;;;;11.00;4.10;;;;;;;20.17;78.86;101315.78;5034342;28;20028;-35
2023/11/16 10:32:30;;;;;;;8.98;3.92;;;;;;;20.16;78.83;101314.16;5042006;28;20028;-35
2023/11/16 10:35:00;;;;;;;9.75;4.00;;;;;;;20.16;78.81;101312.22;5044469;28;20103;-35
2023/11/16 10:37:28;;;;;;;10.15;3.70;;;;;;;20.15;79.01;101310.56;5034588;28;20025;-34
2023/11/16 10:39:53;;;;;;;9.52;3.55;;;;;;;20.15;78.87;101301.50;5049457;28;20037;-34
2023/11/16 10:42:19;;;;;;;8.45;3.65;;;;;;;20.13;78.76;101296.25;5045532;28;20021;-35
2023/11/16 10:44:47;;;;;;;12.20;3.70;;;;;;;20.13;78.62;101295.44;5043905;28;20028;-34
2023/11/16 10:47:13;;;;;;;10.77;3.65;;;;;;;20.12;78.60;101294.63;5055150;28;20029;-35
2023/11/16 10:49:39;;;;;;;8.93;3.17;;;;;;;20.10;78.45;101288.56;5040216;28;20043;-34
2023/11/16 10:52:06;;;;;;;7.55;3.10;;;;;;;20.09;78.34;101286.91;5050570;28;20217;-36
2023/11/16 10:54:33;;;;;;;12.52;3.70;;;;;;;20.06;78.59;101282.00;5052910;28;20090;-35
2023/11/16 10:56:58;;;;;;;7.05;3.20;;;;;;;20.04;78.76;101274.00;5048916;28;20533;-35
2023/11/16 10:59:27;;;;;;;6.75;3.00;;;;;;;20.02;78.81;101273.47;5045689;28;20119;-35
2023/11/16 11:01:54;;;;;;;7.00;2.70;;;;;;;20.00;78.81;101272.91;5054593;28;20538;-34
2023/11/16 11:04:22;;;;;;;8.20;2.95;;;;;;;19.99;78.35;101257.50;5042081;28;20654;-35
2023/11/16 11:06:50;;;;;;;10.07;3.10;;;;;;;19.97;78.67;101254.22;5054762;28;20025;-34
2023/11/16 11:09:17;;;;;;;7.63;2.30;;;;;;;19.98;78.67;101252.28;5044489;28;20523;-34
2023/11/16 11:11:44;;;;;;;5.75;2.58;;;;;;;19.96;78.19;101247.09;5047583;28;20111;-34
2023/11/16 11:14:11;;;;;;;7.05;2.80;;;;;;;19.95;78.31;101239.94;5049707;28;20440;-37
2023/11/16 11:16:39;;;;;;;4.13;2.60;;;;;;;19.95;78.53;101236.34;5049759;28;20050;-34
2023/11/16 11:19:05;;;;;;;7.13;2.80;;;;;;;19.95;78.39;101228.09;5044628;28;20378;-35
2023/11/16 11:21:31;;;;;;;5.22;2.55;;;;;;;19.96;78.54;101235.25;5047549;28;20496;-35